Time;durP1;ratioP1;P1;durP2;ratioP2;P2;SDS_P1;SDS_P2;PMS_P1;PMS_P2;Temp;Humidity;BMP_temperature;BMP_pressure;BME280_temperature;BME280_humidity;BME280_pressure;Samples;Min_cycle;Max_cycle;Signal;HPM_P1;HPM_P2
2023/12/27 00:02:03;;;;;;;10.00;4.00;;;9.80;99.90;;;;;;5018675;28;20577;-68
2023/12/27 00:04:29;;;;;;;7.70;3.97;;;9.70;99.90;;;;;;5012607;28;20210;-68
2023/12/27 00:06:56;;;;;;;7.70;3.67;;;9.70;99.90;;;;;;5019634;28;20188;-68
2023/12/27 00:09:23;;;;;;;7.57;3.43;;;9.70;99.90;;;;;;5016486;28;20692;-68
2023/12/27 00:11:49;;;;;;;6.43;3.27;;;9.70;99.90;;;;;;5018322;28;20457;-68
2023/12/27 00:14:14;;;;;;;8.13;3.40;;;9.70;99.90;;;;;;5019625;28;20475;-68
2023/12/27 00:16:40;;;;;;;4.53;2.70;;;9.80;99.90;;;;;;5021034;28;20436;-68
2023/12/27 00:19:06;;;;;;;8.37;3.37;;;9.80;99.90;;;;;;5015851;28;20187;-68
2023/12/27 00:21:32;;;;;;;6.17;3.53;;;9.80;99.90;;;;;;5016975;28;20234;-68
2023/12/27 00:23:57;;;;;;;12.47;4.57;;;9.70;99.90;;;;;;5021656;28;20497;-68
2023/12/27 00:26:23;;;;;;;5.00;3.07;;;9.80;99.90;;;;;;5020965;28;20769;-68
2023/12/27 00:28:48;;;;;;;7.70;3.53;;;9.90;99.90;;;;;;5020928;28;20197;-68
2023/12/27 00:31:14;;;;;;;9.00;3.43;;;9.90;99.90;;;;;;5023658;28;20180;-68
2023/12/27 00:33:39;;;;;;;9.77;3.73;;;9.90;99.90;;;;;;5016974;28;20220;-68
2023/12/27 00:36:06;;;;;;;7.83;3.07;;;9.90;99.90;;;;;;5019498;28;20180;-68
2023/12/27 00:38:32;;;;;;;15.37;4.10;;;9.90;99.90;;;;;;5024643;28;20180;-69
2023/12/27 00:40:59;;;;;;;10.10;3.87;;;9.90;99.90;;;;;;5024543;28;20465;-68
2023/12/27 00:43:24;;;;;;;6.20;3.67;;;9.90;99.90;;;;;;5022872;28;20211;-68
2023/12/27 00:45:50;;;;;;;8.90;3.60;;;9.90;99.90;;;;;;5020581;28;20811;-68
2023/12/27 00:48:16;;;;;;;7.10;4.07;;;9.90;99.90;;;;;;5023082;28;20192;-68
2023/12/27 00:50:41;;;;;;;5.30;3.47;;;9.90;99.90;;;;;;5021710;28;20181;-68
2023/12/27 00:53:07;;;;;;;6.47;3.40;;;9.90;99.90;;;;;;5019374;28;20473;-68
2023/12/27 00:55:33;;;;;;;7.10;3.80;;;10.00;99.90;;;;;;5022359;28;20192;-68
2023/12/27 00:57:58;;;;;;;8.73;3.67;;;10.00;99.90;;;;;;5021908;28;20180;-68
2023/12/27 01:00:24;;;;;;;9.20;4.10;;;10.00;99.90;;;;;;5022339;28;20222;-67
2023/12/27 01:02:50;;;;;;;8.73;4.00;;;10.00;99.90;;;;;;5019536;28;20222;-68
2023/12/27 01:05:15;;;;;;;11.77;4.10;;;9.90;99.90;;;;;;5023770;28;20176;-68
2023/12/27 01:07:41;;;;;;;5.20;3.33;;;9.90;99.90;;;;;;5021112;28;20260;-67
2023/12/27 01:10:07;;;;;;;11.20;4.43;;;9.90;99.90;;;;;;5016421;28;20271;-67
2023/12/27 01:12:32;;;;;;;11.40;4.40;;;9.90;99.90;;;;;;5024883;28;20220;-68
2023/12/27 01:14:58;;;;;;;9.30;3.33;;;10.00;99.90;;;;;;5039030;28;20438;-69
2023/12/27 01:17:23;;;;;;;11.33;4.53;;;9.90;99.90;;;;;;5024618;28;20193;-68
2023/12/27 01:19:49;;;;;;;10.27;3.97;;;10.00;99.90;;;;;;5029156;28;20655;-68
2023/12/27 01:22:15;;;;;;;8.30;3.50;;;10.00;99.90;;;;;;5033240;28;20726;-68
2023/12/27 01:24:40;;;;;;;5.90;3.83;;;10.00;99.90;;;;;;5032130;28;20573;-68
2023/12/27 01:27:06;;;;;;;6.67;3.90;;;10.00;99.90;;;;;;5030107;28;20178;-68
2023/12/27 01:29:31;;;;;;;7.70;3.80;;;10.10;99.90;;;;;;5024968;28;20181;-68
2023/12/27 01:31:57;;;;;;;5.87;3.60;;;10.10;99.90;;;;;;5023825;28;20193;-68
2023/12/27 01:34:22;;;;;;;9.23;4.47;;;10.10;99.90;;;;;;5019429;28;20256;-68
2023/12/27 01:36:48;;;;;;;9.30;3.97;;;10.00;99.90;;;;;;5023720;28;20181;-68
2023/12/27 01:39:13;;;;;;;8.07;3.57;;;10.10;99.90;;;;;;5022040;28;20207;-68
2023/12/27 01:41:39;;;;;;;8.53;3.53;;;10.10;99.90;;;;;;5016808;28;20177;-67
2023/12/27 01:44:04;;;;;;;5.70;4.10;;;10.10;99.90;;;;;;5024353;28;20204;-68
2023/12/27 01:46:30;;;;;;;15.23;5.47;;;10.10;99.90;;;;;;5022383;28;20628;-68
2023/12/27 01:48:57;;;;;;;10.53;4.30;;;10.20;99.90;;;;;;5018770;28;20322;-68
2023/12/27 01:51:23;;;;;;;7.90;4.47;;;10.20;99.90;;;;;;5022615;28;20208;-68
2023/12/27 01:53:50;;;;;;;6.93;3.67;;;10.20;99.90;;;;;;5019844;28;20479;-68
2023/12/27 01:56:16;;;;;;;14.40;5.53;;;10.20;99.90;;;;;;5020800;28;20183;-68
2023/12/27 01:58:41;;;;;;;5.50;2.90;;;10.20;99.90;;;;;;5022907;28;20439;-68
2023/12/27 02:01:07;;;;;;;9.70;3.77;;;10.20;99.90;;;;;;5024296;28;20201;-68
2023/12/27 02:03:32;;;;;;;6.40;3.93;;;10.20;99.90;;;;;;5022687;28;20616;-68
2023/12/27 02:05:59;;;;;;;8.70;3.40;;;10.20;99.90;;;;;;5018802;28;20229;-68
2023/12/27 02:08:26;;;;;;;11.90;3.83;;;10.20;99.90;;;;;;5023222;28;20588;-68
2023/12/27 02:10:52;;;;;;;7.03;3.77;;;10.20;99.90;;;;;;5018109;28;20443;-69
2023/12/27 02:13:18;;;;;;;7.40;4.03;;;10.20;99.90;;;;;;5022779;28;21196;-67
2023/12/27 02:15:44;;;;;;;8.80;3.67;;;10.20;99.90;;;;;;5020739;28;20177;-68
2023/12/27 02:18:10;;;;;;;8.63;4.27;;;10.20;99.90;;;;;;5016938;28;20815;-68
2023/12/27 02:20:36;;;;;;;9.33;3.27;;;10.30;99.90;;;;;;5022592;28;20204;-69
2023/12/27 02:23:05;;;;;;;6.47;3.40;;;10.30;99.90;;;;;;5023907;28;20466;-67
2023/12/27 02:25:32;;;;;;;6.93;4.00;;;10.30;99.90;;;;;;5018560;28;20287;-70
2023/12/27 02:27:57;;;;;;;8.13;4.27;;;10.30;99.90;;;;;;5023777;28;20797;-68
2023/12/27 02:30:23;;;;;;;6.87;3.60;;;10.30;99.90;;;;;;5017910;28;20451;-68
2023/12/27 02:32:50;;;;;;;5.83;3.67;;;10.30;99.90;;;;;;5020194;28;20498;-68
2023/12/27 02:35:16;;;;;;;11.70;4.77;;;10.30;99.90;;;;;;5027557;28;20766;-67
2023/12/27 02:37:42;;;;;;;5.30;3.03;;;10.30;99.90;;;;;;5021499;28;20510;-68
2023/12/27 02:40:08;;;;;;;7.17;3.00;;;10.40;99.90;;;;;;5051422;28;20457;-67
2023/12/27 02:42:37;;;;;;;8.90;3.80;;;10.40;99.90;;;;;;5021103;28;20276;-68
2023/12/27 02:45:04;;;;;;;9.03;4.07;;;10.40;99.90;;;;;;5049517;28;20463;-67
2023/12/27 02:47:30;;;;;;;9.17;3.50;;;10.40;99.90;;;;;;5020576;28;20438;-68
2023/12/27 02:49:56;;;;;;;6.90;3.63;;;10.40;99.90;;;;;;5019816;28;20419;-67
2023/12/27 02:52:21;;;;;;;11.47;4.20;;;10.40;99.90;;;;;;5022227;28;20208;-67
2023/12/27 02:54:47;;;;;;;11.67;4.33;;;10.30;99.90;;;;;;5020884;28;20737;-67
2023/12/27 02:57:13;;;;;;;7.47;4.00;;;10.40;99.90;;;;;;5017454;28;20667;-67
2023/12/27 02:59:38;;;;;;;7.43;3.33;;;10.40;99.90;;;;;;5022726;28;20173;-67
2023/12/27 03:02:04;;;;;;;6.87;3.63;;;10.40;99.90;;;;;;5022142;28;20172;-67
2023/12/27 03:04:29;;;;;;;5.80;3.47;;;10.40;99.90;;;;;;5021528;28;20667;-67
2023/12/27 03:06:55;;;;;;;10.60;4.00;;;10.50;99.90;;;;;;5022076;28;20184;-67
2023/12/27 03:09:20;;;;;;;7.43;3.30;;;10.50;99.90;;;;;;5018631;28;20184;-67
2023/12/27 03:11:46;;;;;;;12.87;3.53;;;10.50;99.90;;;;;;5020015;28;20685;-68
2023/12/27 03:14:12;;;;;;;7.73;4.40;;;10.40;99.90;;;;;;5020866;28;20294;-68
2023/12/27 03:16:37;;;;;;;8.17;3.83;;;10.40;99.90;;;;;;5044354;28;20882;-68
2023/12/27 03:19:03;;;;;;;11.30;3.50;;;10.50;99.90;;;;;;5021348;28;20185;-68
2023/12/27 03:21:28;;;;;;;16.17;5.07;;;10.50;99.90;;;;;;5021947;28;20184;-68
2023/12/27 03:23:54;;;;;;;7.80;3.50;;;10.40;99.90;;;;;;5047215;28;20290;-67
2023/12/27 03:26:19;;;;;;;11.23;3.37;;;10.40;99.90;;;;;;5017923;28;20671;-67
2023/12/27 03:28:45;;;;;;;8.40;3.60;;;10.40;99.90;;;;;;5018958;28;20188;-68
2023/12/27 03:31:13;;;;;;;10.17;3.83;;;10.40;99.90;;;;;;5023476;28;20185;-68
2023/12/27 03:33:38;;;;;;;9.07;4.23;;;10.50;99.90;;;;;;5021662;28;20240;-68
2023/12/27 03:36:04;;;;;;;8.20;4.20;;;10.40;99.90;;;;;;5023003;28;20847;-68
2023/12/27 03:38:30;;;;;;;8.00;3.90;;;10.40;99.90;;;;;;5020244;28;20192;-68
2023/12/27 03:40:55;;;;;;;10.20;4.10;;;10.40;99.90;;;;;;5020394;28;20906;-68
2023/12/27 03:43:21;;;;;;;6.20;3.20;;;10.40;99.90;;;;;;5022919;28;20200;-68
2023/12/27 03:45:49;;;;;;;10.37;3.67;;;10.40;99.90;;;;;;5023182;28;20218;-68
2023/12/27 03:48:15;;;;;;;11.30;4.13;;;10.40;99.90;;;;;;5019476;28;20180;-68
2023/12/27 03:50:40;;;;;;;13.57;4.20;;;10.40;99.90;;;;;;5016355;28;21024;-67
2023/12/27 03:53:06;;;;;;;7.93;3.47;;;10.40;99.90;;;;;;5016147;28;20921;-67
2023/12/27 03:55:32;;;;;;;8.37;3.47;;;10.40;99.90;;;;;;5044091;28;20690;-67
2023/12/27 03:57:57;;;;;;;8.07;3.27;;;10.40;99.90;;;;;;5022009;28;20415;-67
2023/12/27 04:00:23;;;;;;;15.23;4.10;;;10.50;99.90;;;;;;5017287;28;20226;-68
2023/12/27 04:02:48;;;;;;;8.80;4.00;;;10.50;99.90;;;;;;5022641;28;20246;-67
2023/12/27 04:05:14;;;;;;;8.30;3.93;;;10.50;99.90;;;;;;5021681;28;20744;-67
2023/12/27 04:07:39;;;;;;;7.10;4.20;;;10.50;99.90;;;;;;5018184;28;20208;-67
2023/12/27 04:10:06;;;;;;;7.57;3.53;;;10.50;99.90;;;;;;5018917;28;20184;-68
2023/12/27 04:12:31;;;;;;;4.40;3.77;;;10.50;99.90;;;;;;5047750;28;20231;-67
2023/12/27 04:14:57;;;;;;;7.97;3.77;;;10.50;99.90;;;;;;5021466;28;20443;-67
2023/12/27 04:17:23;;;;;;;8.10;4.03;;;10.40;99.90;;;;;;5019333;28;20182;-67
2023/12/27 04:19:48;;;;;;;9.10;3.73;;;10.40;99.90;;;;;;5021954;28;20195;-67
2023/12/27 04:22:14;;;;;;;8.70;4.00;;;10.40;99.90;;;;;;5048982;28;20212;-68
2023/12/27 04:24:39;;;;;;;6.33;3.17;;;10.40;99.90;;;;;;5020172;28;20250;-67
2023/12/27 04:27:05;;;;;;;7.87;3.50;;;10.40;99.90;;;;;;5018994;28;20177;-67
2023/12/27 04:29:30;;;;;;;5.60;3.60;;;10.40;99.90;;;;;;5022998;28;20180;-67
2023/12/27 04:31:56;;;;;;;7.33;4.13;;;10.40;99.90;;;;;;5021229;28;20200;-67
2023/12/27 04:34:22;;;;;;;5.70;3.30;;;10.30;99.90;;;;;;5022083;28;20216;-67
2023/12/27 04:36:47;;;;;;;10.23;4.10;;;10.30;99.90;;;;;;5021385;28;20200;-67
2023/12/27 04:39:13;;;;;;;11.00;4.03;;;10.30;99.90;;;;;;5020600;28;20184;-67
2023/12/27 04:41:39;;;;;;;5.30;3.10;;;10.30;99.90;;;;;;5018519;28;20262;-67
2023/12/27 04:44:05;;;;;;;7.10;3.87;;;10.30;99.90;;;;;;5017898;28;20208;-68
2023/12/27 04:46:31;;;;;;;11.93;4.77;;;10.30;99.90;;;;;;5022255;28;20415;-68
2023/12/27 04:48:56;;;;;;;10.27;4.60;;;10.30;99.90;;;;;;5019290;28;20177;-68
2023/12/27 04:51:22;;;;;;;6.63;3.13;;;10.30;99.90;;;;;;5016900;28;20191;-68
2023/12/27 04:53:47;;;;;;;7.70;4.30;;;10.30;99.90;;;;;;5019650;28;20224;-67
2023/12/27 04:56:16;;;;;;;9.67;3.77;;;10.30;99.90;;;;;;5020082;28;20276;-67
2023/12/27 04:58:41;;;;;;;10.70;3.87;;;10.30;99.90;;;;;;5023021;28;20211;-67
2023/12/27 05:01:07;;;;;;;8.63;3.30;;;10.30;99.90;;;;;;5024602;28;20438;-67
2023/12/27 05:03:39;;;;;;;10.60;3.90;;;10.30;99.90;;;;;;5021593;28;20299;-67
2023/12/27 05:06:08;;;;;;;8.93;3.73;;;10.30;99.90;;;;;;5022704;28;20431;-67
2023/12/27 05:08:34;;;;;;;6.47;3.50;;;10.20;99.90;;;;;;5022114;28;20905;-67
2023/12/27 05:11:00;;;;;;;5.20;3.40;;;10.20;99.90;;;;;;5023848;28;20513;-67
2023/12/27 05:13:26;;;;;;;7.60;4.57;;;10.20;99.90;;;;;;5022506;28;20870;-67
2023/12/27 05:15:51;;;;;;;9.03;3.90;;;10.20;99.90;;;;;;5018154;28;20228;-67
2023/12/27 05:18:17;;;;;;;7.53;3.60;;;10.20;99.90;;;;;;5028994;28;20836;-67
2023/12/27 05:20:42;;;;;;;9.50;3.60;;;10.20;99.90;;;;;;5028602;28;20625;-67
2023/12/27 05:23:08;;;;;;;8.33;3.90;;;10.20;99.90;;;;;;5026944;28;20226;-68
2023/12/27 05:25:33;;;;;;;5.80;3.40;;;10.20;99.90;;;;;;5026463;28;20200;-68
2023/12/27 05:27:59;;;;;;;10.60;3.80;;;10.20;99.90;;;;;;5026222;28;20716;-68
2023/12/27 05:30:24;;;;;;;11.57;4.17;;;10.20;99.90;;;;;;5022873;28;20226;-68
2023/12/27 05:32:50;;;;;;;6.70;3.60;;;10.20;99.90;;;;;;5022460;28;20307;-68
2023/12/27 05:35:15;;;;;;;5.67;3.63;;;10.10;99.90;;;;;;5025392;28;20172;-69
2023/12/27 05:37:41;;;;;;;10.30;4.63;;;10.10;99.90;;;;;;5026455;28;20814;-68
2023/12/27 05:40:07;;;;;;;5.73;3.73;;;10.10;99.90;;;;;;5025612;28;20196;-68
2023/12/27 05:42:33;;;;;;;6.53;3.30;;;10.10;99.90;;;;;;5029735;28;20180;-67
2023/12/27 05:44:58;;;;;;;9.07;4.10;;;10.10;99.90;;;;;;5026207;28;21003;-68
2023/12/27 05:47:24;;;;;;;11.93;4.10;;;10.10;99.90;;;;;;5027879;28;20192;-67
2023/12/27 05:49:49;;;;;;;9.00;4.00;;;10.00;99.90;;;;;;5018085;28;20185;-67
2023/12/27 05:52:15;;;;;;;7.17;3.80;;;10.00;99.90;;;;;;5025621;28;20226;-68
2023/12/27 05:54:41;;;;;;;11.13;3.80;;;10.00;99.90;;;;;;5051675;28;20542;-67
2023/12/27 05:57:07;;;;;;;6.60;4.00;;;9.90;99.90;;;;;;5022699;28;20264;-67
2023/12/27 05:59:33;;;;;;;8.00;4.00;;;9.90;99.90;;;;;;5048903;28;20570;-67
2023/12/27 06:01:58;;;;;;;13.27;4.50;;;9.90;99.90;;;;;;5021285;28;20230;-67
2023/12/27 06:04:24;;;;;;;7.00;4.10;;;9.90;99.90;;;;;;5026835;28;20215;-67
2023/12/27 06:06:49;;;;;;;8.33;4.00;;;9.80;99.90;;;;;;5020671;28;20288;-67
2023/12/27 06:09:17;;;;;;;7.13;4.73;;;9.80;99.90;;;;;;5021960;28;20185;-68
2023/12/27 06:11:42;;;;;;;6.53;4.13;;;9.80;99.90;;;;;;5017296;28;20763;-68
2023/12/27 06:14:08;;;;;;;7.30;4.30;;;9.80;99.90;;;;;;5024610;28;20478;-68
2023/12/27 06:16:33;;;;;;;9.10;4.20;;;9.80;99.90;;;;;;5023543;28;20177;-68
2023/12/27 06:19:02;;;;;;;6.43;4.10;;;9.80;99.90;;;;;;5020962;28;20222;-68
2023/12/27 06:21:28;;;;;;;10.20;4.07;;;9.80;99.90;;;;;;5025839;28;20183;-68
2023/12/27 06:23:54;;;;;;;9.03;4.43;;;9.80;99.90;;;;;;5018327;28;20479;-68
2023/12/27 06:26:20;;;;;;;7.97;4.33;;;9.80;99.90;;;;;;5024442;28;20188;-67
2023/12/27 06:28:46;;;;;;;8.23;4.07;;;9.80;99.90;;;;;;5021715;28;20443;-68
2023/12/27 06:31:11;;;;;;;11.73;4.23;;;9.80;99.90;;;;;;5024018;28;20250;-68
2023/12/27 06:33:37;;;;;;;7.80;3.90;;;9.80;99.90;;;;;;5020109;28;20466;-68
2023/12/27 06:36:07;;;;;;;8.10;3.87;;;9.80;99.90;;;;;;5026181;28;20511;-68
2023/12/27 06:38:32;;;;;;;4.00;3.33;;;9.80;99.90;;;;;;5023803;28;20176;-68
2023/12/27 06:41:00;;;;;;;7.53;3.90;;;9.80;99.90;;;;;;5017715;28;20412;-68
2023/12/27 06:43:26;;;;;;;6.27;3.93;;;9.80;99.90;;;;;;5026599;28;20504;-68
2023/12/27 06:45:52;;;;;;;6.20;3.87;;;9.80;99.90;;;;;;5022089;28;20479;-69
2023/12/27 06:48:17;;;;;;;6.77;4.00;;;9.80;99.90;;;;;;5028193;28;20537;-68
2023/12/27 06:50:43;;;;;;;8.30;3.57;;;9.80;99.90;;;;;;5023251;28;20514;-68
2023/12/27 06:53:09;;;;;;;5.67;3.70;;;9.80;99.90;;;;;;5025232;28;20884;-68
2023/12/27 06:55:34;;;;;;;7.60;4.00;;;9.80;99.90;;;;;;5030019;28;20326;-69
2023/12/27 06:58:00;;;;;;;8.33;4.00;;;9.70;99.90;;;;;;5032995;28;20709;-69
2023/12/27 07:00:28;;;;;;;7.00;3.43;;;9.70;99.90;;;;;;5031327;28;20206;-68
2023/12/27 07:02:54;;;;;;;5.97;3.13;;;9.70;99.90;;;;;;5029681;28;20290;-68
2023/12/27 07:05:19;;;;;;;8.50;3.80;;;9.80;99.90;;;;;;5023161;28;20474;-69
2023/12/27 07:07:46;;;;;;;5.90;3.40;;;9.80;99.90;;;;;;5027118;28;20461;-68
2023/12/27 07:10:11;;;;;;;5.83;3.40;;;9.80;99.90;;;;;;5029945;28;20253;-68
2023/12/27 07:12:38;;;;;;;7.13;3.43;;;9.80;99.90;;;;;;5025630;28;20460;-68
2023/12/27 07:15:05;;;;;;;5.10;3.20;;;9.90;99.90;;;;;;5029615;28;20185;-69
2023/12/27 07:17:30;;;;;;;5.70;3.50;;;9.90;99.90;;;;;;5017615;28;20515;-68
2023/12/27 07:19:56;;;;;;;7.23;3.30;;;9.90;99.90;;;;;;5029308;28;20506;-68
2023/12/27 07:22:22;;;;;;;8.60;3.97;;;9.90;99.90;;;;;;5024749;28;20175;-68
2023/12/27 07:24:48;;;;;;;5.37;3.43;;;9.90;99.90;;;;;;5027552;28;20192;-68
2023/12/27 07:27:14;;;;;;;8.87;3.70;;;9.90;99.90;;;;;;5026797;28;20181;-68
2023/12/27 07:29:40;;;;;;;9.10;3.80;;;10.00;99.90;;;;;;5025662;28;20411;-68
2023/12/27 07:32:06;;;;;;;5.73;2.93;;;10.00;99.90;;;;;;5024305;28;20168;-68
2023/12/27 07:34:32;;;;;;;10.73;3.50;;;10.00;99.90;;;;;;5032362;28;20458;-69
2023/12/27 07:36:58;;;;;;;15.90;4.07;;;10.00;99.90;;;;;;5029761;28;20463;-69
2023/12/27 07:39:24;;;;;;;10.20;3.93;;;10.00;99.90;;;;;;5031796;28;20418;-69
2023/12/27 07:41:50;;;;;;;5.90;3.40;;;10.00;99.90;;;;;;5020182;28;20440;-68
2023/12/27 07:44:16;;;;;;;9.13;3.90;;;10.00;99.90;;;;;;5026638;28;20463;-68
2023/12/27 07:46:43;;;;;;;7.37;4.70;;;10.00;99.90;;;;;;5013787;28;20641;-68
2023/12/27 07:49:08;;;;;;;13.37;5.43;;;10.00;99.90;;;;;;5021198;28;20415;-68
2023/12/27 07:51:34;;;;;;;7.63;4.50;;;10.00;99.90;;;;;;5019886;28;20441;-69
2023/12/27 07:54:00;;;;;;;10.40;4.67;;;10.10;99.90;;;;;;5017340;28;20215;-69
2023/12/27 07:56:25;;;;;;;6.53;4.03;;;10.10;99.90;;;;;;5013625;28;20726;-69
2023/12/27 07:58:51;;;;;;;7.37;5.30;;;10.10;99.90;;;;;;5017712;28;20181;-68
2023/12/27 08:01:17;;;;;;;10.53;6.97;;;10.10;99.90;;;;;;5019640;28;20651;-69
2023/12/27 08:03:44;;;;;;;12.00;6.30;;;10.00;99.90;;;;;;5018534;28;20239;-68
2023/12/27 08:06:10;;;;;;;7.50;5.50;;;10.10;99.90;;;;;;5023023;28;20184;-68
2023/12/27 08:08:36;;;;;;;7.53;5.50;;;10.10;99.90;;;;;;5023673;28;20779;-69
2023/12/27 08:11:04;;;;;;;7.73;4.87;;;10.10;99.90;;;;;;5018800;28;20213;-68
2023/12/27 08:13:31;;;;;;;8.90;4.80;;;10.10;99.90;;;;;;5021804;28;20724;-67
2023/12/27 08:15:57;;;;;;;5.93;4.00;;;10.10;99.90;;;;;;5022720;28;20420;-68
2023/12/27 08:18:23;;;;;;;7.47;3.50;;;10.20;99.90;;;;;;5022555;28;20451;-68
2023/12/27 08:20:49;;;;;;;7.53;4.40;;;10.20;99.90;;;;;;5020281;28;20498;-68
2023/12/27 08:23:16;;;;;;;7.83;4.23;;;10.10;99.90;;;;;;5025993;28;20251;-68
2023/12/27 08:25:43;;;;;;;6.40;3.80;;;10.10;99.90;;;;;;5018516;28;20616;-67
2023/12/27 08:28:09;;;;;;;5.77;3.80;;;10.10;99.90;;;;;;5016278;28;20492;-68
2023/12/27 08:30:35;;;;;;;8.90;4.57;;;10.10;99.90;;;;;;5021647;28;20916;-68
2023/12/27 08:33:01;;;;;;;8.37;3.70;;;10.10;99.90;;;;;;5021865;28;20235;-68
2023/12/27 08:35:26;;;;;;;12.13;5.30;;;10.10;99.90;;;;;;5025693;28;20454;-68
2023/12/27 08:37:52;;;;;;;8.60;4.20;;;10.10;99.90;;;;;;5023414;28;20237;-68
2023/12/27 08:40:22;;;;;;;5.87;3.83;;;10.10;99.90;;;;;;5023210;28;20277;-68
2023/12/27 08:42:48;;;;;;;6.63;3.97;;;10.10;99.90;;;;;;5024935;28;20213;-68
2023/12/27 08:45:14;;;;;;;7.17;4.03;;;10.10;99.90;;;;;;5025797;28;20963;-68
2023/12/27 08:47:40;;;;;;;7.27;3.63;;;10.20;99.90;;;;;;5024715;28;20189;-68
2023/12/27 08:50:06;;;;;;;10.80;4.13;;;10.20;99.90;;;;;;5022693;28;20931;-68
2023/12/27 08:52:32;;;;;;;8.37;4.20;;;10.20;99.90;;;;;;5037625;28;20177;-68
2023/12/27 08:54:58;;;;;;;9.20;4.00;;;10.20;99.90;;;;;;5023846;28;20517;-68
2023/12/27 08:57:23;;;;;;;8.33;4.70;;;10.20;99.90;;;;;;5023228;28;20260;-68
2023/12/27 08:59:49;;;;;;;9.93;4.57;;;10.20;99.90;;;;;;5023420;28;20531;-68
2023/12/27 09:02:15;;;;;;;9.70;3.90;;;10.20;99.90;;;;;;5024172;28;20197;-68
2023/12/27 09:04:40;;;;;;;6.83;4.17;;;10.20;99.90;;;;;;5026645;28;20235;-67
2023/12/27 09:07:06;;;;;;;7.00;4.10;;;10.20;99.90;;;;;;5022265;28;20556;-67
2023/12/27 09:09:31;;;;;;;6.10;4.00;;;10.20;99.90;;;;;;5023691;28;20275;-68
2023/12/27 09:11:57;;;;;;;6.17;3.70;;;10.20;99.90;;;;;;5037919;28;20197;-68
2023/12/27 09:14:23;;;;;;;7.63;4.47;;;10.20;99.90;;;;;;5022694;28;20287;-68
2023/12/27 09:16:49;;;;;;;12.30;4.90;;;10.20;99.90;;;;;;5023802;28;20180;-68
2023/12/27 09:19:15;;;;;;;11.93;5.10;;;10.20;99.90;;;;;;5026183;28;20916;-69
2023/12/27 09:21:47;;;;;;;12.27;4.47;;;10.20;99.90;;;;;;5019473;28;20189;-67
2023/12/27 09:24:13;;;;;;;12.30;4.73;;;10.20;99.90;;;;;;5022221;28;20240;-68
2023/12/27 09:26:39;;;;;;;6.90;3.70;;;10.20;99.90;;;;;;5024164;28;20888;-68
2023/12/27 09:29:05;;;;;;;7.70;3.73;;;10.20;99.90;;;;;;5020454;28;20511;-68
2023/12/27 09:31:31;;;;;;;8.30;3.50;;;10.20;99.90;;;;;;5024396;28;20631;-68
2023/12/27 09:33:59;;;;;;;11.13;4.37;;;10.20;99.90;;;;;;5021032;28;21026;-68
2023/12/27 09:36:25;;;;;;;14.53;4.13;;;10.30;99.90;;;;;;5022827;28;20420;-68
2023/12/27 09:38:51;;;;;;;8.90;3.60;;;10.30;99.90;;;;;;5013737;28;20439;-68
2023/12/27 09:41:17;;;;;;;4.60;3.03;;;10.30;99.90;;;;;;5026764;28;20798;-68
2023/12/27 09:43:45;;;;;;;9.13;3.60;;;10.40;99.90;;;;;;5021751;28;20250;-68
2023/12/27 09:46:11;;;;;;;7.87;3.97;;;10.40;99.90;;;;;;5020758;28;20682;-68
2023/12/27 09:48:37;;;;;;;6.63;3.70;;;10.50;99.90;;;;;;5023323;28;20447;-69
2023/12/27 09:51:05;;;;;;;5.80;3.53;;;10.70;99.90;;;;;;5019204;28;20882;-69
2023/12/27 09:53:30;;;;;;;6.57;3.30;;;10.80;99.90;;;;;;5023520;28;20216;-69
2023/12/27 09:55:57;;;;;;;7.57;3.90;;;10.90;99.90;;;;;;5022596;28;20841;-68
2023/12/27 09:58:29;;;;;;;5.23;2.30;;;11.00;99.90;;;;;;5022780;28;20562;-68
2023/12/27 10:01:02;;;;;;;8.73;2.87;;;11.00;99.90;;;;;;5020533;28;20623;-68
2023/12/27 10:03:41;;;;;;;6.87;3.20;;;11.00;99.90;;;;;;5021855;28;20443;-68
2023/12/27 10:06:07;;;;;;;6.40;3.40;;;11.00;99.90;;;;;;5019642;28;20426;-68
2023/12/27 10:08:33;;;;;;;5.20;2.93;;;11.10;99.90;;;;;;5021854;28;21126;-67
2023/12/27 10:10:59;;;;;;;3.73;2.90;;;11.10;99.90;;;;;;5020441;28;20181;-67
2023/12/27 10:13:25;;;;;;;7.37;3.00;;;11.10;99.90;;;;;;5020118;28;20479;-69
2023/12/27 10:15:50;;;;;;;5.50;3.20;;;11.20;99.90;;;;;;5022497;28;20456;-68
2023/12/27 10:18:16;;;;;;;11.00;4.43;;;11.40;99.90;;;;;;5020309;28;20177;-67
2023/12/27 10:20:46;;;;;;;5.87;3.40;;;11.40;99.90;;;;;;5026143;28;20250;-68
2023/12/27 10:23:11;;;;;;;5.80;3.90;;;11.40;99.90;;;;;;5019446;28;20220;-68
2023/12/27 10:25:40;;;;;;;5.23;3.43;;;11.40;99.90;;;;;;5028898;28;20412;-68
2023/12/27 10:28:05;;;;;;;6.20;3.53;;;11.40;99.90;;;;;;5021120;28;20176;-68
2023/12/27 10:30:31;;;;;;;9.30;3.53;;;11.40;99.90;;;;;;5023626;28;20430;-67
2023/12/27 10:33:00;;;;;;;4.57;3.27;;;11.40;99.90;;;;;;5023857;28;20285;-68
2023/12/27 10:35:31;;;;;;;5.67;3.23;;;11.50;99.90;;;;;;5026072;28;20179;-68
2023/12/27 10:38:06;;;;;;;5.43;3.10;;;11.50;99.90;;;;;;5020291;28;20469;-68
2023/12/27 10:40:33;;;;;;;6.67;3.40;;;11.50;99.90;;;;;;5024181;28;20429;-68
2023/12/27 10:42:59;;;;;;;7.17;3.70;;;11.40;99.90;;;;;;5020677;28;20447;-67
2023/12/27 10:45:25;;;;;;;7.27;3.70;;;11.50;99.90;;;;;;5024766;28;20509;-69
2023/12/27 10:48:04;;;;;;;4.90;3.17;;;11.50;99.90;;;;;;5021247;28;20191;-69
2023/12/27 10:50:31;;;;;;;6.57;3.27;;;11.50;99.90;;;;;;5026756;28;20434;-68
2023/12/27 10:53:06;;;;;;;5.70;3.00;;;11.60;99.90;;;;;;5022691;28;20462;-69
2023/12/27 10:55:36;;;;;;;10.50;4.87;;;11.60;99.90;;;;;;5026185;28;20406;-68
2023/12/27 10:58:05;;;;;;;5.60;2.50;;;11.60;99.90;;;;;;5026321;28;20935;-69
2023/12/27 11:00:32;;;;;;;6.00;2.80;;;11.60;99.90;;;;;;5022936;28;20452;-68
2023/12/27 11:02:58;;;;;;;5.60;3.87;;;11.70;99.90;;;;;;5021488;28;20524;-69
2023/12/27 11:05:27;;;;;;;4.43;2.33;;;11.70;99.90;;;;;;5024575;28;20452;-69
2023/12/27 11:07:54;;;;;;;6.67;2.50;;;11.70;99.90;;;;;;5020963;28;20466;-66
2023/12/27 11:10:21;;;;;;;6.33;2.50;;;11.80;99.90;;;;;;5022944;28;20428;-67
2023/12/27 11:12:47;;;;;;;6.10;4.30;;;11.90;99.90;;;;;;5026229;28;20926;-67
2023/12/27 11:15:19;;;;;;;6.73;3.30;;;11.80;99.90;;;;;;5023842;28;20462;-68
2023/12/27 11:17:49;;;;;;;6.13;3.47;;;11.80;99.90;;;;;;5024174;28;20468;-68
2023/12/27 11:20:18;;;;;;;5.90;2.50;;;11.80;99.90;;;;;;5022532;28;20423;-67
2023/12/27 11:22:44;;;;;;;4.13;2.90;;;11.80;99.90;;;;;;5015340;28;20451;-68
2023/12/27 11:25:11;;;;;;;7.57;3.70;;;11.90;99.90;;;;;;5019811;28;20411;-69
2023/12/27 11:27:37;;;;;;;6.17;3.47;;;12.00;99.90;;;;;;5002402;28;20434;-67
2023/12/27 11:30:04;;;;;;;6.17;4.13;;;12.00;99.90;;;;;;5024709;28;20423;-68
2023/12/27 11:32:30;;;;;;;5.60;3.80;;;11.90;99.90;;;;;;5029789;28;20580;-68
2023/12/27 11:34:57;;;;;;;5.90;3.63;;;11.80;99.90;;;;;;5021573;28;20479;-69
2023/12/27 11:37:26;;;;;;;5.33;3.67;;;11.90;99.90;;;;;;5025458;28;20531;-68
2023/12/27 11:39:53;;;;;;;5.57;3.67;;;12.00;99.90;;;;;;5023532;28;20424;-67
2023/12/27 11:42:21;;;;;;;6.93;3.50;;;12.10;99.90;;;;;;5020101;28;20648;-68
2023/12/27 11:44:48;;;;;;;6.20;3.50;;;12.10;99.90;;;;;;5021752;28;20466;-68
2023/12/27 11:47:17;;;;;;;5.90;3.83;;;12.10;99.90;;;;;;5023572;28;20897;-68
2023/12/27 11:50:13;;;;;;;6.73;3.90;;;12.20;99.90;;;;;;5020973;28;20534;-68
2023/12/27 11:52:49;;;;;;;8.03;3.90;;;12.20;99.90;;;;;;5021779;28;20438;-68
2023/12/27 11:55:18;;;;;;;6.80;3.10;;;12.40;99.90;;;;;;5023970;28;20453;-68
2023/12/27 11:57:43;;;;;;;6.57;3.43;;;12.50;99.90;;;;;;5020280;28;20477;-67
2023/12/27 12:00:13;;;;;;;7.53;3.57;;;12.70;99.90;;;;;;5020409;28;20784;-67
2023/12/27 12:02:48;;;;;;;7.63;4.40;;;12.90;99.90;;;;;;5020884;28;20689;-72
2023/12/27 12:05:47;;;;;;;6.33;3.17;;;12.90;99.90;;;;;;5022556;28;20445;-69
2023/12/27 12:08:12;;;;;;;9.97;3.70;;;12.90;99.90;;;;;;5021365;28;20415;-69
2023/12/27 12:10:38;;;;;;;7.07;3.33;;;13.00;99.90;;;;;;5023998;28;20430;-68
2023/12/27 12:13:03;;;;;;;6.30;3.23;;;13.10;99.90;;;;;;5021375;28;20234;-69
2023/12/27 12:15:29;;;;;;;7.37;3.37;;;13.20;99.90;;;;;;5026153;28;20188;-68
2023/12/27 12:17:56;;;;;;;7.40;3.20;;;13.30;99.90;;;;;;5024862;28;20530;-68
2023/12/27 12:20:22;;;;;;;5.90;3.33;;;13.30;99.90;;;;;;5021983;28;20183;-68
2023/12/27 12:22:49;;;;;;;7.90;3.50;;;13.50;99.90;;;;;;5022134;28;20443;-68
2023/12/27 12:25:14;;;;;;;5.93;3.20;;;13.60;99.90;;;;;;5023818;28;20184;-68
2023/12/27 12:27:44;;;;;;;7.20;3.30;;;13.80;99.90;;;;;;5025549;28;20442;-68
2023/12/27 12:30:10;;;;;;;5.20;3.13;;;13.90;99.90;;;;;;5020627;28;20181;-68
2023/12/27 12:32:40;;;;;;;5.93;3.47;;;14.10;99.90;;;;;;5027459;28;20447;-68
2023/12/27 12:35:08;;;;;;;6.10;3.40;;;14.40;99.90;;;;;;5025976;28;20430;-68
2023/12/27 12:37:34;;;;;;;7.70;3.23;;;14.60;99.90;;;;;;5027244;28;20433;-68
2023/12/27 12:40:00;;;;;;;4.30;3.07;;;14.70;99.90;;;;;;5022883;28;20439;-68
2023/12/27 12:42:25;;;;;;;6.90;3.70;;;14.80;99.90;;;;;;5020662;28;20451;-69
2023/12/27 12:44:51;;;;;;;8.87;3.33;;;14.70;99.90;;;;;;5022093;28;20262;-68